Praia Da Marosa — ECDZ — position and weather

sailwx.info

Track history (hours):
 
Tides and Currents Weather Stations Pressure Air Temp Water Temp Dewpoint Dewpoint Depression Visibility Wind Speed Wind Dir Waves Ship Positions

Praia Da Marosa

Last reported at 2017-Sep-11 07:38 UTC. Time now 2017-Sep-19 11:46 UTC.
Position N 43°46' W 006°25'.
Warning: this ship's position is 8 days out of date.

Length 31 m.

Type: Fishing. MMSI: 224097970.

Date/timePositionNaut miles runAvg speedWind from/ knotsBaromVisibWave heightAir tempDewpointWater temp
2017-Sep-11 07:38N 43°46' W 006°25'2 3.7
2017-Sep-11 07:13N 43°46' W 006°23'1 3.6
2017-Sep-11 06:54N 43°45' W 006°21'2 3.9
2017-Sep-11 06:29N 43°44' W 006°20'1 1.5
2017-Sep-11 05:56N 43°44' W 006°18'1 1.9
2017-Sep-11 05:29N 43°44' W 006°17'0 0.2
2017-Sep-11 04:43N 43°44' W 006°17'0 0.2
2017-Sep-11 04:12N 43°44' W 006°17'0 0.3
2017-Sep-11 03:54N 43°44' W 006°17'0 0.6
2017-Sep-11 03:12N 43°44' W 006°18'  
2017-Sep-05 10:43N 43°46' W 006°23'1 3.1
2017-Sep-05 10:28N 43°45' W 006°22'2 3.5
2017-Sep-05 09:57N 43°44' W 006°20'6 2.3
2017-Sep-05 07:31N 43°47' W 006°27'0 3.7
2017-Sep-05 07:30N 43°47' W 006°27'2 4.1
2017-Sep-05 07:00N 43°48' W 006°29'  
2017-Sep-01 07:39N 43°48' W 006°29'  
Track history (hours):
 
Tides and Currents Weather Stations Pressure Air Temp Water Temp Dewpoint Dewpoint Depression Visibility Wind Speed Wind Dir Waves Ship Positions

Praia Da Marosa

Last reported at 2017-Sep-11 07:38 UTC. Time now 2017-Sep-19 11:46 UTC.
Position N 43°46' W 006°25'.
Warning: this ship's position is 8 days out of date.

Length 31 m.

Type: Fishing. MMSI: 224097970.

Date/timePositionNaut miles runAvg speedWind from/ knotsBaromVisibWave heightAir tempDewpointWater temp
2017-Sep-11 07:38N 43°46' W 006°25'2 3.7
2017-Sep-11 07:13N 43°46' W 006°23'1 3.6
2017-Sep-11 06:54N 43°45' W 006°21'2 3.9
2017-Sep-11 06:29N 43°44' W 006°20'1 1.5
2017-Sep-11 05:56N 43°44' W 006°18'1 1.9
2017-Sep-11 05:29N 43°44' W 006°17'0 0.2
2017-Sep-11 04:43N 43°44' W 006°17'0 0.2
2017-Sep-11 04:12N 43°44' W 006°17'0 0.3
2017-Sep-11 03:54N 43°44' W 006°17'0 0.6
2017-Sep-11 03:12N 43°44' W 006°18'  
2017-Sep-05 10:43N 43°46' W 006°23'1 3.1
2017-Sep-05 10:28N 43°45' W 006°22'2 3.5
2017-Sep-05 09:57N 43°44' W 006°20'6 2.3
2017-Sep-05 07:31N 43°47' W 006°27'0 3.7
2017-Sep-05 07:30N 43°47' W 006°27'2 4.1
2017-Sep-05 07:00N 43°48' W 006°29'  
2017-Sep-01 07:39N 43°48' W 006°29'  

Dump ship's entire track history